Fishkill, NY (12524)

4:52 PM EDT on August 28, 2016 (GMT -0400)
Cedar Hill | | Change Station

Elev 446 ft 41.56 °N, 73.87 °W | Updated 15 seconds ago

Partly Cloudy
Partly Cloudy
87.6 °F
Feels Like 91 °F
N
2.0
Wind Variable Wind from SSE

Today
High -- | Low -- °F
--% Chance of Precip.
Yesterday
High -- | Low -- °F
Precip. -- in
Pressure 30.15 in
Visibility 10.0 miles
Clouds Few 5000 ft
Heat Index 91 °F
Dew Point 67 °F
Humidity 51%
Rainfall 0.00 in
Snow Depth Not available.
6:18 AM 7:34 PM
Waning Crescent, 13% visible
METAR KPOU 281953Z AUTO 17007KT 150V220 10SM FEW050 30/18 A3016 RMK AO2 SLP208 T03000178
Pressure 30.15 in
Visibility 10.0 miles
Clouds Few 5000 ft
Heat Index 91 °F
Dew Point 67 °F
Humidity 51%
Rainfall 0.00 in
Snow Depth Not available.
6:18 AM 7:34 PM
Waning Crescent, 13% visible
METAR KPOU 281953Z AUTO 17007KT 150V220 10SM FEW050 30/18 A3016 RMK AO2 SLP208 T03000178

10-Day Weather Forecast

Almanac

Astronomy

Aug. 28, 2016 Rise Set
Actual Time
Civil Twilight
Nautical Twilight
Astronomical Twilight
Moon
Length of Visible Light
Length of Day
Tomorrow will be .
, % of the Moon is Illuminated

Today's Extremes

State Highs State Lows

Community

WunderPhotos

Upload Photos

1,935,689 photos uploaded!

WunderBlog® & News

Nearby

Air Quality

  Air Quality AQ Index Pollutant
Not available.

Snow Depth

Station Depth Elevation

Earthquake Activity

City Distance Mag. Time & Date
Minimum magnitude displayed is 2.5.

Coastal Water Temperatures

Place Temperature

Stations

Nearby Weather Stations

Station Location Temp. Windchill Dew Point Humidity Wind Precip. Elev Updated Type
                   

Watches & Warnings

There are currently no watches in effect.